createdAt,value
2019-01-16T00:49:31.957Z,1011.60
2019-01-16T00:50:04.951Z,1011.60
2019-01-16T00:51:04.922Z,1011.54
2019-01-16T00:52:04.905Z,1011.56
2019-01-16T00:53:04.899Z,1011.61
2019-01-16T00:54:04.932Z,1011.58
2019-01-16T00:55:04.874Z,1011.56
2019-01-16T00:56:04.860Z,1011.57
2019-01-16T00:57:04.851Z,1011.55
2019-01-16T00:58:04.838Z,1011.59
2019-01-16T00:59:04.915Z,1011.54
2019-01-16T01:00:05.234Z,1011.61
2019-01-16T01:01:04.810Z,1011.56
2019-01-16T01:02:04.793Z,1011.57
2019-01-16T01:03:04.786Z,1011.58
2019-01-16T01:04:04.772Z,1011.58
2019-01-16T01:05:04.787Z,1011.57
2019-01-16T01:06:04.753Z,1011.59
2019-01-16T01:07:04.741Z,1011.55
2019-01-16T01:08:04.728Z,1011.56
2019-01-16T01:09:04.719Z,1011.55
2019-01-16T01:10:04.711Z,1011.58
2019-01-16T01:11:05.242Z,1011.57
2019-01-16T01:12:04.688Z,1011.51
2019-01-16T01:13:04.672Z,1011.52
2019-01-16T01:15:32.267Z,1011.58
2019-01-16T01:15:59.602Z,1011.58
2019-01-16T01:16:32.618Z,1011.54
2019-01-16T01:17:32.579Z,1011.51
2019-01-16T01:18:32.691Z,1011.47
2019-01-16T01:19:32.559Z,1011.44
2019-01-16T01:20:32.537Z,1011.46
2019-01-16T01:21:32.526Z,1011.46
2019-01-16T01:22:32.539Z,1011.49
2019-01-16T01:23:32.505Z,1011.46
2019-01-16T01:24:32.495Z,1011.47
2019-01-16T01:25:32.485Z,1011.43
2019-01-16T01:26:32.470Z,1011.46
2019-01-16T01:27:33.329Z,1011.42
2019-01-16T01:28:32.448Z,1011.42
2019-01-16T01:29:32.437Z,1011.48
2019-01-16T01:30:32.427Z,1011.34
2019-01-16T01:31:32.414Z,1011.34
2019-01-16T01:32:32.407Z,1011.34
2019-01-16T01:33:32.415Z,1011.34
2019-01-16T01:34:32.383Z,1011.37
2019-01-16T01:35:32.373Z,1011.31
2019-01-16T01:36:32.361Z,1011.40
2019-01-16T01:37:32.348Z,1011.36
2019-01-16T01:38:32.369Z,1011.38
2019-01-16T01:39:32.331Z,1011.36
2019-01-16T01:40:32.316Z,1011.42
2019-01-16T01:41:32.309Z,1011.35
2019-01-16T01:42:32.297Z,1011.41
2019-01-16T01:43:32.284Z,1011.45
2019-01-16T01:44:32.293Z,1011.38
2019-01-16T01:45:32.259Z,1011.38
2019-01-16T01:46:32.251Z,1011.39
2019-01-16T01:47:32.239Z,1011.41
2019-01-16T01:48:39.754Z,1011.39
2019-01-16T01:49:33.241Z,1011.38
2019-01-16T01:50:32.204Z,1011.33
2019-01-16T01:51:32.192Z,1011.37
2019-01-16T01:52:32.187Z,1011.47
2019-01-16T01:53:32.176Z,1011.43
2019-01-16T01:54:32.182Z,1011.39
2019-01-16T01:55:32.150Z,1011.35
2019-01-16T01:56:32.140Z,1011.41
2019-01-16T01:57:32.126Z,1011.40
2019-01-16T01:58:32.120Z,1011.36
2019-01-16T01:59:32.134Z,1011.42
2019-01-16T02:00:32.099Z,1011.43
2019-01-16T02:01:32.083Z,1011.42
2019-01-16T02:02:32.071Z,1011.39
2019-01-16T02:03:32.061Z,1011.38
2019-01-16T02:04:32.092Z,1011.37
2019-01-16T02:05:32.041Z,1011.37
2019-01-16T02:06:32.028Z,1011.35
2019-01-16T02:07:32.017Z,1011.32
2019-01-16T02:08:32.007Z,1011.33
2019-01-16T02:09:32.000Z,1011.34
2019-01-16T02:10:33.822Z,1011.27
2019-01-16T02:11:31.974Z,1011.37
2019-01-16T02:12:31.960Z,1011.34
2019-01-16T02:13:31.950Z,1011.29
2019-01-16T02:14:31.942Z,1011.26
2019-01-16T02:15:31.952Z,1011.29
2019-01-16T02:16:31.922Z,1011.31
2019-01-16T02:17:31.906Z,1011.22
2019-01-16T02:18:31.902Z,1011.35
2019-01-16T02:19:31.892Z,1011.24
2019-01-16T02:20:31.873Z,1011.22
2019-01-16T02:21:33.833Z,1011.25
2019-01-16T02:22:31.851Z,1011.26
2019-01-16T02:23:31.841Z,1011.27
2019-01-16T02:24:31.831Z,1011.25
2019-01-16T02:25:31.854Z,1011.32
2019-01-16T02:26:31.806Z,1011.19
2019-01-16T02:27:32.325Z,1011.16
2019-01-16T02:28:31.787Z,1011.25
2019-01-16T02:29:31.773Z,1011.23
2019-01-16T02:30:31.763Z,1011.27
2019-01-16T02:31:31.751Z,1011.20
2019-01-16T02:32:31.766Z,1011.18
2019-01-16T02:33:31.746Z,1011.18
2019-01-16T02:34:31.717Z,1011.22
2019-01-16T02:35:31.706Z,1011.23
2019-01-16T02:36:31.695Z,1011.25
2019-01-16T02:37:31.683Z,1011.21
2019-01-16T02:38:32.331Z,1011.18
2019-01-16T02:39:31.663Z,1011.23
2019-01-16T02:40:31.650Z,1011.21
2019-01-16T02:41:31.641Z,1011.21
2019-01-16T02:42:31.629Z,1011.22
2019-01-16T02:43:31.620Z,1011.20
2019-01-16T02:44:31.628Z,1011.21
2019-01-16T02:45:31.596Z,1011.14
2019-01-16T02:46:31.585Z,1011.05
2019-01-16T02:47:31.579Z,1011.13
2019-01-16T02:48:31.563Z,1011.11
2019-01-16T02:49:32.335Z,1011.10
2019-01-16T02:50:31.543Z,1011.13
2019-01-16T02:51:31.530Z,1011.06
2019-01-16T02:52:31.517Z,1011.07
2019-01-16T02:53:31.509Z,1010.98
2019-01-16T02:54:31.498Z,1011.02
2019-01-16T02:55:31.576Z,1011.03
2019-01-16T02:56:31.478Z,1010.96
2019-01-16T02:57:31.483Z,1010.96
2019-01-16T02:58:31.452Z,1010.98
2019-01-16T02:59:31.442Z,1010.96
2019-01-16T03:00:31.429Z,1010.95
2019-01-16T03:01:34.621Z,1010.94
2019-01-16T03:02:31.406Z,1010.91
2019-01-16T03:03:31.409Z,1010.94
2019-01-16T03:04:31.387Z,1010.87
2019-01-16T03:05:31.377Z,1010.91
2019-01-16T03:06:31.405Z,1010.85
2019-01-16T03:07:31.352Z,1010.83
2019-01-16T03:08:31.341Z,1010.85
2019-01-16T03:09:31.330Z,1010.89
2019-01-16T03:10:31.326Z,1010.80
2019-01-16T03:11:31.310Z,1010.85
2019-01-16T03:12:31.330Z,1010.78
2019-01-16T03:13:31.287Z,1010.82
2019-01-16T03:14:31.276Z,1010.78
2019-01-16T03:15:31.264Z,1010.76
2019-01-16T03:16:31.253Z,1010.77
2019-01-16T03:17:32.835Z,1010.70
2019-01-16T03:18:31.234Z,1010.75
2019-01-16T03:19:31.221Z,1010.77
2019-01-16T03:20:31.209Z,1010.74
2019-01-16T03:21:31.200Z,1010.73
2019-01-16T03:22:31.210Z,1010.72
2019-01-16T03:23:31.196Z,1010.73
2019-01-16T03:24:31.167Z,1010.69
2019-01-16T03:25:31.164Z,1010.68
2019-01-16T03:26:31.142Z,1010.68
2019-01-16T03:27:31.138Z,1010.67
2019-01-16T03:28:31.143Z,1010.65
2019-01-16T03:29:31.110Z,1010.63
2019-01-16T03:30:31.102Z,1010.72
2019-01-16T03:31:31.095Z,1010.69
2019-01-16T03:32:31.087Z,1010.66
2019-01-16T03:33:31.086Z,1010.69
2019-01-16T03:34:31.054Z,1010.63
2019-01-16T03:35:31.046Z,1010.65
2019-01-16T03:36:31.035Z,1010.65
2019-01-16T03:37:31.021Z,1010.65
2019-01-16T03:38:31.029Z,1010.60
2019-01-16T03:39:30.997Z,1010.60
2019-01-16T03:40:30.986Z,1010.68
2019-01-16T03:41:30.976Z,1010.58
2019-01-16T03:42:30.965Z,1010.56
2019-01-16T03:43:31.009Z,1010.58
2019-01-16T03:44:30.949Z,1010.55
2019-01-16T03:45:30.946Z,1010.49
2019-01-16T03:46:30.924Z,1010.51
2019-01-16T03:47:30.914Z,1010.48
2019-01-16T03:48:30.908Z,1010.43
2019-01-16T03:49:32.844Z,1010.47
2019-01-16T03:50:30.886Z,1010.37
2019-01-16T03:51:30.872Z,1010.30
2019-01-16T03:52:30.860Z,1010.30
2019-01-16T03:53:30.870Z,1010.27
2019-01-16T03:54:30.864Z,1010.29
2019-01-16T03:55:30.828Z,1010.36
2019-01-16T03:56:30.813Z,1010.30
2019-01-16T03:57:30.816Z,1010.21
2019-01-16T03:58:30.792Z,1010.23
2019-01-16T03:59:30.804Z,1010.22
2019-01-16T04:00:30.779Z,1010.28
2019-01-16T04:01:30.761Z,1010.24
2019-01-16T04:02:30.752Z,1010.23
2019-01-16T04:03:30.742Z,1010.24
2019-01-16T04:04:30.751Z,1010.24
2019-01-16T05:44:59.462Z,1009.34
2019-01-16T05:45:32.440Z,1009.35
2019-01-16T05:46:32.421Z,1009.30
2019-01-16T05:47:32.405Z,1009.38
2019-01-16T05:48:32.415Z,1009.38
2019-01-16T05:49:32.385Z,1009.30
2019-01-16T05:50:32.373Z,1009.34
2019-01-16T05:51:32.361Z,1009.34
2019-01-16T05:52:32.404Z,1009.33
2019-01-16T05:53:32.359Z,1009.37
2019-01-16T05:54:32.337Z,1009.30
2019-01-16T05:55:32.316Z,1009.35
2019-01-16T05:56:32.307Z,1009.34
2019-01-16T05:57:32.296Z,1009.26
2019-01-16T05:58:32.305Z,1009.29
2019-01-16T05:59:32.274Z,1009.33
2019-01-16T06:00:32.264Z,1009.27
2019-01-16T06:01:32.252Z,1009.29
2019-01-16T06:02:32.240Z,1009.33
2019-01-16T06:03:32.249Z,1009.20
2019-01-16T06:04:32.218Z,1009.20
2019-01-16T06:05:32.228Z,1009.19
2019-01-16T06:23:46.585Z,1009.23
2019-01-16T06:24:46.586Z,1009.16
2019-01-16T06:25:46.560Z,1009.16
2019-01-16T06:26:46.523Z,1009.21
2019-01-16T06:27:46.522Z,1009.15
2019-01-16T06:28:46.505Z,1009.13
2019-01-16T06:29:46.523Z,1009.16
2019-01-16T06:30:46.480Z,1009.03
2019-01-16T06:31:46.468Z,1009.06
2019-01-16T06:32:46.458Z,1009.04
2019-01-16T06:33:46.450Z,1009.07
2019-01-16T06:34:46.463Z,1009.05
2019-01-16T06:35:46.435Z,1009.03
2019-01-16T06:36:46.421Z,1009.02
2019-01-16T06:37:46.409Z,1009.02
2019-01-16T06:38:46.398Z,1008.98
2019-01-16T06:39:46.405Z,1008.98
2019-01-16T06:40:46.372Z,1009.09
2019-01-16T06:41:46.359Z,1009.14
2019-01-16T06:42:46.351Z,1009.09
2019-01-16T06:43:46.337Z,1009.06
2019-01-16T06:44:46.352Z,1009.09
2019-01-16T06:45:46.317Z,1009.09
2019-01-16T06:46:46.308Z,1009.09
2019-01-16T06:47:46.294Z,1009.01
2019-01-16T06:48:46.290Z,1008.99
2019-01-16T06:49:46.300Z,1008.98
2019-01-16T06:50:46.263Z,1009.00
2019-01-16T06:51:46.251Z,1009.04
2019-01-16T06:52:46.240Z,1008.94
2019-01-16T06:53:46.235Z,1009.00
2019-01-16T06:54:46.241Z,1008.98
2019-01-16T06:55:46.210Z,1008.97
2019-01-16T06:56:46.195Z,1009.03
2019-01-16T06:57:46.190Z,1009.00
2019-01-16T06:58:46.177Z,1009.07
2019-01-16T06:59:46.184Z,1009.08
2019-01-16T07:00:46.189Z,1009.09
2019-01-16T07:01:46.142Z,1009.08
2019-01-16T07:02:46.134Z,1009.02
2019-01-16T07:03:46.123Z,1009.01
2019-01-16T07:04:46.136Z,1009.01
2019-01-16T07:05:46.100Z,1008.90
2019-01-16T07:06:46.086Z,1008.98
2019-01-16T07:07:46.083Z,1009.04
2019-01-16T07:08:46.067Z,1009.04
2019-01-16T07:09:46.058Z,1009.04
2019-01-16T07:10:46.067Z,1009.02
2019-01-16T07:11:46.040Z,1009.03
2019-01-16T07:12:46.023Z,1009.07
2019-01-16T07:13:46.011Z,1009.05
2019-01-16T07:14:46.006Z,1008.94
2019-01-16T07:15:46.014Z,1009.05
2019-01-16T07:16:45.980Z,1009.11
2019-01-16T07:17:45.974Z,1009.11
2019-01-16T07:18:45.962Z,1009.03
2019-01-16T07:19:45.950Z,1009.08
2019-01-16T07:20:45.962Z,1009.02
2019-01-16T07:21:45.929Z,1008.96
2019-01-16T07:22:45.917Z,1008.97
2019-01-16T07:23:45.907Z,1009.02
2019-01-16T07:24:45.895Z,1008.94
2019-01-16T07:25:45.905Z,1008.97
2019-01-16T07:26:45.876Z,1009.01
2019-01-16T07:27:45.869Z,1009.02
2019-01-16T07:28:45.853Z,1009.01
2019-01-16T07:29:45.843Z,1008.92
2019-01-16T07:30:45.857Z,1008.95
2019-01-16T07:31:45.819Z,1009.01
2019-01-16T07:32:46.759Z,1008.97
2019-01-16T07:33:45.795Z,1008.97
2019-01-16T07:34:45.782Z,1008.98
2019-01-16T07:35:45.773Z,1008.94
2019-01-16T07:36:45.870Z,1008.98
2019-01-16T07:37:45.752Z,1009.02
2019-01-16T07:38:45.740Z,1009.06
2019-01-16T07:39:45.739Z,1009.01
2019-01-16T07:40:45.719Z,1009.09
2019-01-16T07:41:45.725Z,1009.07
2019-01-16T07:42:46.948Z,1009.03
2019-01-16T07:43:45.682Z,1009.03
2019-01-16T07:44:45.673Z,1009.04
2019-01-16T07:45:45.660Z,1009.05
2019-01-16T07:46:45.670Z,1009.15
2019-01-16T07:47:45.643Z,1009.12
2019-01-16T07:48:45.630Z,1009.13
2019-01-16T07:49:45.636Z,1009.15
2019-01-16T07:50:45.605Z,1009.07
2019-01-16T07:51:45.622Z,1009.07
2019-01-16T07:52:45.585Z,1009.02
2019-01-16T07:53:45.572Z,1009.00
2019-01-16T07:54:45.562Z,1009.01
2019-01-16T07:55:45.551Z,1008.99
2019-01-16T07:56:45.539Z,1008.99
2019-01-16T07:57:45.552Z,1009.02
2019-01-16T07:58:45.519Z,1008.93
2019-01-16T07:59:45.509Z,1008.95
2019-01-16T08:00:45.499Z,1008.94
2019-01-16T08:01:45.503Z,1008.99
2019-01-16T08:02:45.529Z,1009.02
2019-01-16T08:03:45.485Z,1009.03
2019-01-16T08:04:45.494Z,1009.03
2019-01-16T08:05:45.447Z,1009.03
2019-01-16T08:06:45.442Z,1008.95
2019-01-16T08:41:21.181Z,1009.08
2019-01-16T08:42:21.138Z,1009.15
2019-01-16T08:43:21.130Z,1009.07
2019-01-16T08:44:21.138Z,1009.04
2019-01-16T08:45:21.111Z,1008.99
2019-01-16T08:46:21.099Z,1009.02
2019-01-16T08:47:21.083Z,1009.04
2019-01-16T08:48:21.073Z,1009.07
2019-01-16T08:49:21.084Z,1009.09
2019-01-16T08:50:21.051Z,1009.04
2019-01-16T08:51:21.035Z,1009.06
2019-01-16T08:52:21.034Z,1009.08
2019-01-16T08:53:21.016Z,1009.05
2019-01-16T08:54:21.007Z,1009.08
2019-01-16T08:55:21.015Z,1009.04
2019-01-16T08:56:20.983Z,1009.04
2019-01-16T08:57:20.969Z,1009.05
2019-01-16T08:58:20.958Z,1009.05
2019-01-16T08:59:20.948Z,1008.97
2019-01-16T09:00:20.956Z,1008.93
2019-01-16T09:01:20.926Z,1008.92
2019-01-16T09:02:20.914Z,1008.89
2019-01-16T09:03:20.902Z,1008.92
2019-01-16T09:04:20.894Z,1008.92
2019-01-16T09:05:20.912Z,1008.97
2019-01-16T09:06:20.875Z,1008.89
2019-01-16T09:07:20.859Z,1008.87
2019-01-16T09:08:20.847Z,1008.81
2019-01-16T09:09:20.835Z,1008.78
2019-01-16T09:10:20.874Z,1008.73
2019-01-16T09:11:20.815Z,1008.73
2019-01-16T09:12:20.807Z,1008.75
2019-01-16T09:13:20.792Z,1008.75
2019-01-16T09:14:20.780Z,1008.80
2019-01-16T09:15:20.770Z,1008.77
2019-01-16T09:16:20.779Z,1008.79
2019-01-16T09:17:20.753Z,1008.72
2019-01-16T09:18:20.736Z,1008.65
2019-01-16T09:19:20.725Z,1008.66
2019-01-16T09:20:20.715Z,1008.66
2019-01-16T09:21:20.729Z,1008.67
2019-01-16T09:22:20.692Z,1008.72
2019-01-16T09:23:20.682Z,1008.71
2019-01-16T09:24:20.670Z,1008.79
2019-01-16T09:25:20.660Z,1008.80
2019-01-16T09:26:20.670Z,1008.82
2019-01-16T09:27:20.638Z,1008.84
2019-01-16T09:28:20.625Z,1008.78
2019-01-16T09:29:20.622Z,1008.72
2019-01-16T09:30:20.606Z,1008.68
2019-01-16T09:31:20.615Z,1008.69
2019-01-16T09:32:20.581Z,1008.70
2019-01-16T09:33:20.571Z,1008.77
2019-01-16T09:34:20.560Z,1008.72
2019-01-16T09:35:20.551Z,1008.73
2019-01-16T09:36:20.557Z,1008.77
2019-01-16T09:37:20.527Z,1008.77
2019-01-16T09:38:20.514Z,1008.75
2019-01-16T09:39:20.505Z,1008.74
2019-01-16T09:40:20.546Z,1008.79
2019-01-16T09:41:20.502Z,1008.77
2019-01-16T09:42:20.471Z,1008.74
2019-01-16T09:43:20.462Z,1008.72
2019-01-16T09:44:20.448Z,1008.71
2019-01-16T09:45:20.442Z,1008.64
2019-01-16T09:46:20.455Z,1008.69
2019-01-16T09:47:20.417Z,1008.62
2019-01-16T09:48:20.404Z,1008.68
2019-01-16T09:49:20.394Z,1008.70
2019-01-16T09:50:20.387Z,1008.68
2019-01-16T09:51:20.374Z,1008.67
2019-01-16T09:52:20.381Z,1008.62
2019-01-16T09:53:20.354Z,1008.58
2019-01-16T09:54:20.340Z,1008.63
2019-01-16T09:55:20.331Z,1008.54
2019-01-16T09:56:20.317Z,1008.59
2019-01-16T09:57:20.332Z,1008.56
2019-01-16T09:58:20.301Z,1008.56
2019-01-16T09:59:20.285Z,1008.57
2019-01-16T10:00:20.273Z,1008.56
2019-01-16T10:01:20.265Z,1008.50
2019-01-16T10:02:20.273Z,1008.46
2019-01-16T10:03:20.244Z,1008.49
2019-01-16T10:04:20.231Z,1008.42
2019-01-16T10:05:20.224Z,1008.44
2019-01-16T10:06:20.205Z,1008.40
2019-01-16T10:07:20.214Z,1008.34
2019-01-16T10:08:20.192Z,1008.35
2019-01-16T10:09:20.179Z,1008.28
2019-01-16T10:10:20.165Z,1008.27
2019-01-16T10:11:20.156Z,1008.25
2019-01-16T10:12:20.173Z,1008.40
2019-01-16T10:13:20.128Z,1008.34
2019-01-16T10:14:20.117Z,1008.31
2019-01-16T10:15:20.111Z,1008.27
2019-01-16T10:16:20.096Z,1008.31
2019-01-16T10:17:20.083Z,1008.27
2019-01-16T10:18:20.099Z,1008.22
2019-01-16T10:19:20.062Z,1008.31
2019-01-16T10:20:20.051Z,1008.23
2019-01-16T10:21:20.040Z,1008.23
2019-01-16T10:22:20.070Z,1008.20
2019-01-16T10:23:20.017Z,1008.16
2019-01-16T10:24:20.010Z,1008.15
2019-01-16T10:25:20.000Z,1008.08
2019-01-16T10:26:19.989Z,1008.08
2019-01-16T10:27:19.999Z,1008.04
2019-01-16T10:28:19.965Z,1008.01
2019-01-16T10:29:19.952Z,1007.94
2019-01-16T10:30:19.940Z,1007.93
2019-01-16T10:31:19.929Z,1007.92
2019-01-16T10:32:19.917Z,1007.85
2019-01-16T10:33:19.924Z,1007.83
2019-01-16T10:34:19.893Z,1007.89
2019-01-16T10:35:19.886Z,1007.87
2019-01-16T10:36:19.874Z,1007.86
2019-01-16T10:37:19.860Z,1007.79
2019-01-16T10:38:19.872Z,1007.76
2019-01-16T10:39:19.841Z,1007.78
2019-01-16T10:40:19.828Z,1007.78
2019-01-16T10:41:19.814Z,1007.75
2019-01-16T10:42:19.805Z,1007.73
2019-01-16T10:43:19.819Z,1007.72
2019-01-16T10:44:19.782Z,1007.73
2019-01-16T10:45:19.773Z,1007.67
2019-01-16T10:46:19.760Z,1007.69
2019-01-16T10:47:19.752Z,1007.66
2019-01-16T10:48:19.738Z,1007.67
2019-01-16T10:49:19.752Z,1007.64
2019-01-16T10:50:19.718Z,1007.62
2019-01-16T10:51:21.045Z,1007.58
2019-01-16T10:52:19.693Z,1007.60
2019-01-16T10:53:19.682Z,1007.58
2019-01-16T10:54:19.693Z,1007.55
2019-01-16T10:55:19.659Z,1007.58
2019-01-16T10:56:19.656Z,1007.54
2019-01-16T10:57:19.639Z,1007.59
2019-01-16T10:58:19.627Z,1007.66
2019-01-16T10:59:19.636Z,1007.62
2019-01-16T11:00:19.606Z,1007.63
2019-01-16T11:01:19.594Z,1007.59
2019-01-16T11:02:19.582Z,1007.61
2019-01-16T11:03:19.576Z,1007.55
2019-01-16T11:04:19.587Z,1007.54
2019-01-16T11:05:19.551Z,1007.58
2019-01-16T11:06:19.539Z,1007.48
2019-01-16T11:07:19.527Z,1007.41
2019-01-16T11:08:19.530Z,1007.45
2019-01-16T11:09:19.532Z,1007.39
2019-01-16T11:10:19.494Z,1007.35
2019-01-16T11:11:19.485Z,1007.31
2019-01-16T11:12:19.474Z,1007.31
2019-01-16T11:13:19.463Z,1007.28
2019-01-16T11:14:19.458Z,1007.27
2019-01-16T11:15:19.462Z,1007.22
2019-01-16T11:16:19.430Z,1007.26
2019-01-16T11:17:19.421Z,1007.21
2019-01-16T11:18:19.413Z,1007.25
2019-01-16T11:19:19.399Z,1007.14
2019-01-16T11:20:19.405Z,1007.23
2019-01-16T11:21:19.404Z,1007.18
2019-01-16T11:22:19.362Z,1007.26
2019-01-16T11:23:19.355Z,1007.17
2019-01-16T11:24:19.341Z,1007.09
2019-01-16T11:25:19.349Z,1007.12
2019-01-16T11:26:19.322Z,1007.10
2019-01-16T11:27:19.307Z,1007.01
2019-01-16T11:28:19.300Z,1007.03
2019-01-16T11:29:19.285Z,1006.99
2019-01-16T11:30:19.292Z,1007.00
2019-01-16T11:31:19.263Z,1006.92
2019-01-16T11:32:19.253Z,1006.89
2019-01-16T11:33:19.240Z,1006.92
2019-01-16T11:34:19.229Z,1006.89
2019-01-16T11:35:19.243Z,1006.85
2019-01-16T11:36:19.207Z,1006.77
2019-01-16T11:37:19.197Z,1006.81
2019-01-16T11:38:19.186Z,1006.79
2019-01-16T11:39:19.173Z,1006.76
2019-01-16T11:40:19.164Z,1006.72
2019-01-16T11:41:19.173Z,1006.75
2019-01-16T11:42:19.144Z,1006.74
2019-01-16T11:43:19.130Z,1006.73
2019-01-16T11:44:19.118Z,1006.72
2019-01-16T11:45:19.110Z,1006.64
2019-01-16T11:46:19.117Z,1006.69
2019-01-16T11:47:19.086Z,1006.64
2019-01-16T11:48:19.077Z,1006.60
2019-01-16T11:49:19.084Z,1006.60
2019-01-16T11:50:19.052Z,1006.54
2019-01-16T11:51:19.171Z,1006.51
2019-01-16T11:52:19.036Z,1006.57
2019-01-16T11:53:19.020Z,1006.58
2019-01-16T11:54:19.010Z,1006.55
2019-01-16T11:55:19.000Z,1006.53
2019-01-16T11:56:19.013Z,1006.45
2019-01-16T11:57:18.977Z,1006.43
2019-01-16T11:58:18.966Z,1006.38
2019-01-16T11:59:18.953Z,1006.35
2019-01-16T12:00:18.943Z,1006.39
2019-01-16T12:01:18.956Z,1006.27
2019-01-16T12:02:18.922Z,1006.38
2019-01-16T12:03:18.912Z,1006.32
2019-01-16T12:04:18.900Z,1006.33
2019-01-16T12:05:18.889Z,1006.28
2019-01-16T12:06:18.880Z,1006.28
2019-01-16T12:07:18.886Z,1006.27
2019-01-16T12:08:18.882Z,1006.21
2019-01-16T12:09:18.845Z,1006.31
2019-01-16T12:10:18.833Z,1006.28
2019-01-16T12:11:18.822Z,1006.25
2019-01-16T12:12:18.834Z,1006.28
2019-01-16T12:13:18.808Z,1006.16
2019-01-16T12:14:18.788Z,1006.09
2019-01-16T12:15:18.780Z,1006.04
2019-01-16T12:16:18.768Z,1006.09
2019-01-16T12:17:18.777Z,1006.11
2019-01-16T12:18:18.746Z,1006.09
2019-01-16T12:19:18.734Z,1005.95
2019-01-16T12:20:18.722Z,1005.93
2019-01-16T12:21:26.112Z,1005.93
2019-01-16T12:22:19.726Z,1005.84
2019-01-16T12:23:18.689Z,1005.79
2019-01-16T12:24:18.679Z,1005.71
2019-01-16T12:25:18.671Z,1005.64
2019-01-16T12:26:18.657Z,1005.62
2019-01-16T12:27:18.680Z,1005.70
2019-01-16T12:28:18.637Z,1005.60
2019-01-16T12:29:18.624Z,1005.65
2019-01-16T12:30:18.623Z,1005.62
2019-01-16T12:31:18.602Z,1005.62
2019-01-16T12:32:18.618Z,1005.59
2019-01-16T12:33:18.579Z,1005.63
2019-01-16T12:34:18.569Z,1005.63
2019-01-16T12:35:18.562Z,1005.60
2019-01-16T12:36:18.549Z,1005.59
2019-01-16T12:37:18.558Z,1005.60
2019-01-16T12:38:18.526Z,1005.54
2019-01-16T12:39:18.513Z,1005.52
2019-01-16T12:40:18.502Z,1005.43
2019-01-16T12:41:18.492Z,1005.40
2019-01-16T12:42:18.515Z,1005.47
2019-01-16T12:43:18.471Z,1005.40
2019-01-16T12:44:18.458Z,1005.39
2019-01-16T12:45:18.447Z,1005.41
2019-01-16T12:46:18.436Z,1005.45
2019-01-16T12:47:18.473Z,1005.41
2019-01-16T12:48:18.415Z,1005.42
2019-01-16T12:49:18.416Z,1005.52
2019-01-16T12:50:18.392Z,1005.39
2019-01-16T12:51:18.384Z,1005.38
2019-01-16T12:52:18.369Z,1005.34
2019-01-16T12:53:18.385Z,1005.36
2019-01-16T12:54:18.347Z,1005.22
2019-01-16T12:55:18.339Z,1005.24
2019-01-16T12:56:18.326Z,1005.15
2019-01-16T12:57:18.313Z,1005.15
2019-01-16T12:58:18.323Z,1005.03
2019-01-16T12:59:18.292Z,1005.00
2019-01-16T13:00:18.279Z,1004.93
2019-01-16T13:01:18.272Z,1004.85
2019-01-16T13:02:18.259Z,1004.86
2019-01-16T13:03:18.268Z,1004.87
2019-01-16T13:04:18.235Z,1004.75
2019-01-16T13:05:18.226Z,1004.75
2019-01-16T13:06:18.214Z,1004.69
2019-01-16T13:07:18.202Z,1004.73
2019-01-16T13:08:18.213Z,1004.70
2019-01-16T13:09:18.180Z,1004.67
2019-01-16T13:10:18.174Z,1004.74
2019-01-16T13:11:18.158Z,1004.66
2019-01-16T13:12:18.149Z,1004.64
2019-01-16T13:13:18.157Z,1004.65
2019-01-16T13:14:18.127Z,1004.68
2019-01-16T13:15:18.112Z,1004.63
2019-01-16T13:16:18.102Z,1004.57
2019-01-16T13:17:18.090Z,1004.55
2019-01-16T13:18:18.105Z,1004.55
2019-01-16T13:19:18.068Z,1004.52
2019-01-16T13:20:18.058Z,1004.44
2019-01-16T13:21:18.586Z,1004.46
2019-01-16T13:22:18.036Z,1004.41
2019-01-16T13:23:18.044Z,1004.35
2019-01-16T13:24:18.015Z,1004.38
2019-01-16T13:25:18.013Z,1004.37
2019-01-16T13:26:17.989Z,1004.38
2019-01-16T13:27:17.978Z,1004.46
2019-01-16T13:28:17.994Z,1004.45
2019-01-16T13:29:17.963Z,1004.46
2019-01-16T13:30:17.963Z,1004.50
2019-01-16T13:31:17.935Z,1004.47
2019-01-16T13:32:17.922Z,1004.43
2019-01-16T13:33:17.912Z,1004.39
2019-01-16T13:34:17.923Z,1004.35
2019-01-16T13:35:17.888Z,1004.32
2019-01-16T13:36:17.880Z,1004.37
2019-01-16T13:37:17.867Z,1004.37
2019-01-16T13:38:17.853Z,1004.40
2019-01-16T13:39:17.865Z,1004.38
2019-01-16T13:40:17.832Z,1004.38
2019-01-16T13:41:17.824Z,1004.44
2019-01-16T13:42:17.810Z,1004.40
2019-01-16T13:43:17.799Z,1004.35
2019-01-16T13:44:17.812Z,1004.34
2019-01-16T13:45:17.777Z,1004.30
2019-01-16T13:46:17.768Z,1004.25
2019-01-16T13:47:17.758Z,1004.22
2019-01-16T13:48:17.742Z,1004.19
2019-01-16T13:49:17.731Z,1004.18
2019-01-16T13:50:18.095Z,1004.08
2019-01-16T13:51:17.712Z,1004.09
2019-01-16T13:52:19.108Z,1004.07
2019-01-16T13:53:17.690Z,1004.02
2019-01-16T13:54:17.678Z,1004.04
2019-01-16T13:55:17.685Z,1004.00
2019-01-16T13:56:17.655Z,1003.96
2019-01-16T13:57:17.647Z,1003.94
2019-01-16T13:58:17.631Z,1003.88
2019-01-16T13:59:17.620Z,1003.92
2019-01-16T14:00:17.632Z,1003.85
2019-01-16T14:01:17.597Z,1003.75
2019-01-16T14:02:17.587Z,1003.80
2019-01-16T14:03:17.578Z,1003.74
2019-01-16T14:04:17.599Z,1003.71
2019-01-16T14:05:17.572Z,1003.69
2019-01-16T14:06:17.544Z,1003.67
2019-01-16T14:07:17.531Z,1003.57
2019-01-16T14:08:17.522Z,1003.61
2019-01-16T14:09:17.513Z,1003.68
2019-01-16T14:10:17.526Z,1003.59
2019-01-16T14:11:17.486Z,1003.61
2019-01-16T14:12:17.476Z,1003.51
2019-01-16T14:13:17.464Z,1003.53
2019-01-16T14:14:17.457Z,1003.54
2019-01-16T14:15:17.441Z,1003.57
2019-01-16T14:16:17.451Z,1003.55
2019-01-16T14:17:17.418Z,1003.52
2019-01-16T14:18:17.412Z,1003.44
2019-01-16T14:19:17.401Z,1003.44
2019-01-16T14:20:17.388Z,1003.40
2019-01-16T14:21:17.403Z,1003.41
2019-01-16T14:22:17.364Z,1003.40
2019-01-16T14:23:17.351Z,1003.34
2019-01-16T14:24:17.343Z,1003.40
2019-01-16T14:25:17.334Z,1003.38
2019-01-16T14:26:17.327Z,1003.42
2019-01-16T14:27:17.334Z,1003.36
2019-01-16T14:28:17.298Z,1003.39
2019-01-16T14:29:17.285Z,1003.34
2019-01-16T14:30:17.275Z,1003.40
2019-01-16T14:31:17.263Z,1003.40
2019-01-16T14:32:18.104Z,1003.42
2019-01-16T14:33:17.243Z,1003.39
2019-01-16T14:34:17.229Z,1003.39
2019-01-16T14:35:17.218Z,1003.35
2019-01-16T14:36:17.212Z,1003.32
2019-01-16T14:37:17.237Z,1003.34
2019-01-16T14:38:17.184Z,1003.36
2019-01-16T14:39:17.174Z,1003.31
2019-01-16T14:40:17.161Z,1003.29
2019-01-16T14:41:17.150Z,1003.26
2019-01-16T14:42:17.144Z,1003.27
2019-01-16T14:43:17.152Z,1003.27
2019-01-16T14:44:17.115Z,1003.25
2019-01-16T14:45:17.108Z,1003.25
2019-01-16T14:46:17.096Z,1003.22
2019-01-16T14:47:17.081Z,1003.26
2019-01-16T14:48:17.097Z,1003.24
2019-01-16T14:49:17.061Z,1003.17
2019-01-16T14:50:17.052Z,1003.19
2019-01-16T14:51:17.038Z,1003.15
2019-01-16T14:52:17.046Z,1003.10
2019-01-16T14:53:17.016Z,1003.08
2019-01-16T14:54:17.005Z,1003.05
2019-01-16T14:55:16.999Z,1003.08
2019-01-16T14:56:16.985Z,1003.07
2019-01-16T14:57:16.998Z,1003.13
2019-01-16T14:58:16.962Z,1003.17
2019-01-16T14:59:16.956Z,1003.10
2019-01-16T15:00:16.941Z,1003.11
2019-01-16T15:01:16.934Z,1003.01
2019-01-16T15:02:16.916Z,1003.02
2019-01-16T15:03:16.933Z,1003.00
2019-01-16T15:04:16.895Z,1002.98
2019-01-16T15:05:16.883Z,1002.97
2019-01-16T15:06:16.874Z,1002.95
2019-01-16T15:07:16.866Z,1002.93
2019-01-16T15:08:16.876Z,1002.86
2019-01-16T15:09:16.844Z,1002.87
2019-01-16T15:10:16.827Z,1002.86
2019-01-16T15:11:16.816Z,1002.89
2019-01-16T15:12:16.809Z,1002.84
2019-01-16T15:13:16.820Z,1002.87
2019-01-16T15:14:16.783Z,1002.76
2019-01-16T15:15:16.773Z,1002.79
2019-01-16T15:16:16.759Z,1002.85
2019-01-16T15:17:16.747Z,1002.81
2019-01-16T15:18:16.758Z,1002.83
2019-01-16T15:19:16.726Z,1002.80
2019-01-16T15:20:16.713Z,1002.75
2019-01-16T15:21:16.703Z,1002.75
2019-01-16T15:22:16.692Z,1002.62
2019-01-16T15:23:16.703Z,1002.70
2019-01-16T15:24:16.668Z,1002.73